Página principal
METAR-TAF:

METAR-TAF

Aeroportos :

Wallis, França

latitude: 13-14S, longitude: 176-10W, altura: 23 m

METAR: em falta

Hora: 12:11 (00:11 UTC)

Previsão

O boletim foi feito há 1 hora e 11 minutos, às 23:00 UTC
Previsão válida de 13 às 00 UTC a 13 às 24 UTC
Vento 10 kt de este
Visibilidade 10 km ou mais
Nuvens dispersasa uma altura de 2000 ft
Nuvens fragmentadasa uma altura de 3500 ft
Temporariamente
de 13 às 00 UTC a 13 às 09 UTC
aguaceiros de chuva
Temporariamente
de 13 às 09 UTC a 13 às 18 UTC
Visibilidade: 3500 m
Nuvens fragmentadasa uma altura de 1400 ft
Nuvens dispersasa uma altura de 2000 ft, Cumulus congestus.
aguaceiros de chuva

TAF: NLWW 122300Z 1300/1324 09010KT 9999 SCT020 BKN035 TEMPO 1300/1309 SHRA TEMPO 1309/1318 3500 SHRA BKN014 SCT020TCU

Observações e previsões do tempo de mais de 4000 aeroportos (mensagens METAR e TAF).

As estações disponíveis são os pontos amarelos e vermelhos sobre o mapa.

Mova o rato sobre o mapa para ver o nome da estação.

Depois clique no ponto para visualizar as observações e previsões meteorológicas.

Para alterar o mapa : clique nos botões verdes com uma cruz preta para aumentar o zoom; no botão verde com uma pitada de zoom; ou nas setas verdes para mapas adjacentes.


METAR-TAF: